sensor_id;sensor_type;location;lat;lon;timestamp;P1;durP1;ratioP1;P2;durP2;ratioP2
37065;SDS011;22981;43.080;25.550;2023-01-01T00:00:19;224.37;;;149.10;;
37065;SDS011;22981;43.080;25.550;2023-01-01T00:02:46;214.15;;;142.20;;
37065;SDS011;22981;43.080;25.550;2023-01-01T00:05:14;203.55;;;133.50;;
37065;SDS011;22981;43.080;25.550;2023-01-01T00:07:41;130.27;;;82.85;;
37065;SDS011;22981;43.080;25.550;2023-01-01T00:10:09;108.57;;;71.90;;
37065;SDS011;22981;43.080;25.550;2023-01-01T00:12:58;137.43;;;91.53;;
37065;SDS011;22981;43.080;25.550;2023-01-01T00:15:26;141.25;;;92.20;;
37065;SDS011;22981;43.080;25.550;2023-01-01T00:17:54;128.50;;;87.82;;
37065;SDS011;22981;43.080;25.550;2023-01-01T00:20:22;122.90;;;78.72;;
37065;SDS011;22981;43.080;25.550;2023-01-01T00:22:50;139.90;;;92.33;;
37065;SDS011;22981;43.080;25.550;2023-01-01T00:25:17;111.12;;;75.87;;
37065;SDS011;22981;43.080;25.550;2023-01-01T00:27:45;84.92;;;55.52;;
37065;SDS011;22981;43.080;25.550;2023-01-01T00:30:13;86.30;;;58.35;;
37065;SDS011;22981;43.080;25.550;2023-01-01T00:32:40;78.25;;;54.25;;
37065;SDS011;22981;43.080;25.550;2023-01-01T00:35:08;69.03;;;43.83;;
37065;SDS011;22981;43.080;25.550;2023-01-01T00:37:35;62.05;;;43.17;;
37065;SDS011;22981;43.080;25.550;2023-01-01T00:40:03;49.65;;;35.95;;
37065;SDS011;22981;43.080;25.550;2023-01-01T00:42:31;57.30;;;41.53;;
37065;SDS011;22981;43.080;25.550;2023-01-01T00:44:59;58.28;;;44.23;;
37065;SDS011;22981;43.080;25.550;2023-01-01T00:47:26;76.53;;;51.48;;
37065;SDS011;22981;43.080;25.550;2023-01-01T00:49:54;85.05;;;56.30;;
37065;SDS011;22981;43.080;25.550;2023-01-01T00:52:21;76.65;;;52.55;;
37065;SDS011;22981;43.080;25.550;2023-01-01T00:54:49;63.35;;;42.70;;
37065;SDS011;22981;43.080;25.550;2023-01-01T00:57:16;69.80;;;45.73;;
37065;SDS011;22981;43.080;25.550;2023-01-01T00:59:44;71.70;;;46.40;;
37065;SDS011;22981;43.080;25.550;2023-01-01T01:02:11;68.78;;;44.88;;
37065;SDS011;22981;43.080;25.550;2023-01-01T01:04:39;84.77;;;54.90;;
37065;SDS011;22981;43.080;25.550;2023-01-01T01:07:06;80.60;;;51.73;;
37065;SDS011;22981;43.080;25.550;2023-01-01T01:09:34;81.15;;;53.42;;
37065;SDS011;22981;43.080;25.550;2023-01-01T01:12:02;64.25;;;44.42;;
37065;SDS011;22981;43.080;25.550;2023-01-01T01:14:29;73.22;;;50.60;;
37065;SDS011;22981;43.080;25.550;2023-01-01T01:16:57;71.60;;;47.65;;
37065;SDS011;22981;43.080;25.550;2023-01-01T01:19:24;59.85;;;42.30;;
37065;SDS011;22981;43.080;25.550;2023-01-01T01:21:52;50.43;;;36.13;;
37065;SDS011;22981;43.080;25.550;2023-01-01T01:24:19;50.83;;;36.58;;
37065;SDS011;22981;43.080;25.550;2023-01-01T01:26:47;61.00;;;37.10;;
37065;SDS011;22981;43.080;25.550;2023-01-01T01:29:14;52.38;;;38.30;;
37065;SDS011;22981;43.080;25.550;2023-01-01T01:31:42;54.13;;;36.42;;
37065;SDS011;22981;43.080;25.550;2023-01-01T01:34:10;58.30;;;39.65;;
37065;SDS011;22981;43.080;25.550;2023-01-01T01:36:37;58.55;;;41.48;;
37065;SDS011;22981;43.080;25.550;2023-01-01T01:39:05;60.28;;;39.53;;
37065;SDS011;22981;43.080;25.550;2023-01-01T01:41:32;58.78;;;41.02;;
37065;SDS011;22981;43.080;25.550;2023-01-01T01:44:05;59.73;;;42.62;;
37065;SDS011;22981;43.080;25.550;2023-01-01T01:46:49;66.22;;;45.35;;
37065;SDS011;22981;43.080;25.550;2023-01-01T01:49:20;45.05;;;30.05;;
37065;SDS011;22981;43.080;25.550;2023-01-01T01:51:47;45.10;;;30.77;;
37065;SDS011;22981;43.080;25.550;2023-01-01T01:54:17;51.30;;;36.58;;
37065;SDS011;22981;43.080;25.550;2023-01-01T01:56:47;53.85;;;34.23;;
37065;SDS011;22981;43.080;25.550;2023-01-01T01:59:19;44.03;;;28.98;;
37065;SDS011;22981;43.080;25.550;2023-01-01T02:01:51;39.60;;;26.80;;
37065;SDS011;22981;43.080;25.550;2023-01-01T02:04:18;41.80;;;29.82;;
37065;SDS011;22981;43.080;25.550;2023-01-01T02:06:46;47.20;;;30.25;;
37065;SDS011;22981;43.080;25.550;2023-01-01T02:09:15;45.95;;;32.35;;
37065;SDS011;22981;43.080;25.550;2023-01-01T02:11:43;54.60;;;35.63;;
37065;SDS011;22981;43.080;25.550;2023-01-01T02:14:11;49.33;;;34.85;;
37065;SDS011;22981;43.080;25.550;2023-01-01T02:16:42;53.80;;;36.40;;
37065;SDS011;22981;43.080;25.550;2023-01-01T02:30:15;63.92;;;42.80;;
37065;SDS011;22981;43.080;25.550;2023-01-01T02:32:56;58.52;;;41.00;;
37065;SDS011;22981;43.080;25.550;2023-01-01T02:35:50;58.28;;;39.67;;
37065;SDS011;22981;43.080;25.550;2023-01-01T02:38:17;168.47;;;98.00;;
37065;SDS011;22981;43.080;25.550;2023-01-01T02:40:46;87.37;;;53.30;;
37065;SDS011;22981;43.080;25.550;2023-01-01T02:43:17;69.17;;;45.28;;
37065;SDS011;22981;43.080;25.550;2023-01-01T02:45:44;77.32;;;49.50;;
37065;SDS011;22981;43.080;25.550;2023-01-01T02:54:11;63.00;;;40.85;;
37065;SDS011;22981;43.080;25.550;2023-01-01T03:00:00;70.70;;;44.38;;
37065;SDS011;22981;43.080;25.550;2023-01-01T03:08:18;103.78;;;63.92;;
37065;SDS011;22981;43.080;25.550;2023-01-01T03:13:15;60.20;;;39.45;;
37065;SDS011;22981;43.080;25.550;2023-01-01T03:15:47;58.48;;;40.03;;
37065;SDS011;22981;43.080;25.550;2023-01-01T03:18:23;67.92;;;42.65;;
37065;SDS011;22981;43.080;25.550;2023-01-01T03:20:52;61.85;;;42.00;;
37065;SDS011;22981;43.080;25.550;2023-01-01T03:23:23;66.87;;;43.40;;
37065;SDS011;22981;43.080;25.550;2023-01-01T03:25:53;62.98;;;41.77;;
37065;SDS011;22981;43.080;25.550;2023-01-01T03:28:29;65.70;;;42.88;;
37065;SDS011;22981;43.080;25.550;2023-01-01T03:30:58;59.85;;;39.48;;
37065;SDS011;22981;43.080;25.550;2023-01-01T03:33:31;59.38;;;39.60;;
37065;SDS011;22981;43.080;25.550;2023-01-01T03:36:08;53.42;;;37.00;;
37065;SDS011;22981;43.080;25.550;2023-01-01T03:41:12;59.55;;;39.40;;
37065;SDS011;22981;43.080;25.550;2023-01-01T03:46:24;52.27;;;36.17;;
37065;SDS011;22981;43.080;25.550;2023-01-01T03:48:53;58.80;;;37.85;;
37065;SDS011;22981;43.080;25.550;2023-01-01T03:57:07;64.47;;;41.63;;
37065;SDS011;22981;43.080;25.550;2023-01-01T03:59:57;66.25;;;41.33;;
37065;SDS011;22981;43.080;25.550;2023-01-01T04:02:34;63.68;;;40.43;;
37065;SDS011;22981;43.080;25.550;2023-01-01T04:05:03;64.87;;;40.65;;
37065;SDS011;22981;43.080;25.550;2023-01-01T04:07:33;61.90;;;41.37;;
37065;SDS011;22981;43.080;25.550;2023-01-01T04:10:01;61.50;;;41.55;;
37065;SDS011;22981;43.080;25.550;2023-01-01T04:12:31;63.85;;;42.15;;
37065;SDS011;22981;43.080;25.550;2023-01-01T04:14:59;59.18;;;39.53;;
37065;SDS011;22981;43.080;25.550;2023-01-01T04:17:26;59.48;;;40.55;;
37065;SDS011;22981;43.080;25.550;2023-01-01T04:19:54;62.23;;;42.15;;
37065;SDS011;22981;43.080;25.550;2023-01-01T04:22:21;60.38;;;40.50;;
37065;SDS011;22981;43.080;25.550;2023-01-01T04:24:49;62.27;;;38.80;;
37065;SDS011;22981;43.080;25.550;2023-01-01T04:27:17;62.80;;;39.38;;
37065;SDS011;22981;43.080;25.550;2023-01-01T04:29:44;56.90;;;37.73;;
37065;SDS011;22981;43.080;25.550;2023-01-01T04:32:12;60.00;;;40.10;;
37065;SDS011;22981;43.080;25.550;2023-01-01T04:34:39;59.42;;;37.67;;
37065;SDS011;22981;43.080;25.550;2023-01-01T04:37:07;57.13;;;35.85;;
37065;SDS011;22981;43.080;25.550;2023-01-01T04:39:34;53.98;;;36.98;;
37065;SDS011;22981;43.080;25.550;2023-01-01T04:42:02;58.20;;;37.45;;
37065;SDS011;22981;43.080;25.550;2023-01-01T04:44:29;73.55;;;46.65;;
37065;SDS011;22981;43.080;25.550;2023-01-01T04:46:57;60.43;;;38.38;;
37065;SDS011;22981;43.080;25.550;2023-01-01T04:49:25;58.28;;;37.95;;
37065;SDS011;22981;43.080;25.550;2023-01-01T04:51:52;59.73;;;40.50;;
37065;SDS011;22981;43.080;25.550;2023-01-01T04:54:20;60.03;;;40.85;;
37065;SDS011;22981;43.080;25.550;2023-01-01T04:56:48;59.50;;;37.90;;
37065;SDS011;22981;43.080;25.550;2023-01-01T04:59:15;57.85;;;37.95;;
37065;SDS011;22981;43.080;25.550;2023-01-01T05:01:43;56.83;;;35.50;;
37065;SDS011;22981;43.080;25.550;2023-01-01T05:04:13;52.93;;;34.25;;
37065;SDS011;22981;43.080;25.550;2023-01-01T05:06:42;55.12;;;36.20;;
37065;SDS011;22981;43.080;25.550;2023-01-01T05:09:10;51.45;;;33.00;;
37065;SDS011;22981;43.080;25.550;2023-01-01T05:11:38;48.02;;;30.82;;
37065;SDS011;22981;43.080;25.550;2023-01-01T05:14:05;46.18;;;30.55;;
37065;SDS011;22981;43.080;25.550;2023-01-01T05:16:34;45.55;;;30.50;;
37065;SDS011;22981;43.080;25.550;2023-01-01T05:19:03;49.65;;;33.53;;
37065;SDS011;22981;43.080;25.550;2023-01-01T05:21:32;47.08;;;31.87;;
37065;SDS011;22981;43.080;25.550;2023-01-01T05:24:02;50.67;;;33.83;;
37065;SDS011;22981;43.080;25.550;2023-01-01T05:26:33;56.85;;;37.23;;
37065;SDS011;22981;43.080;25.550;2023-01-01T05:29:02;63.80;;;39.38;;
37065;SDS011;22981;43.080;25.550;2023-01-01T05:31:31;58.45;;;37.63;;
37065;SDS011;22981;43.080;25.550;2023-01-01T05:34:00;51.90;;;35.60;;
37065;SDS011;22981;43.080;25.550;2023-01-01T05:36:29;67.03;;;44.42;;
37065;SDS011;22981;43.080;25.550;2023-01-01T05:38:58;70.57;;;44.67;;
37065;SDS011;22981;43.080;25.550;2023-01-01T05:41:26;64.35;;;41.65;;
37065;SDS011;22981;43.080;25.550;2023-01-01T05:43:55;63.73;;;41.40;;
37065;SDS011;22981;43.080;25.550;2023-01-01T05:46:23;62.38;;;40.85;;
37065;SDS011;22981;43.080;25.550;2023-01-01T05:48:51;64.90;;;42.00;;
37065;SDS011;22981;43.080;25.550;2023-01-01T05:51:21;72.35;;;46.55;;
37065;SDS011;22981;43.080;25.550;2023-01-01T05:53:52;76.75;;;49.45;;
37065;SDS011;22981;43.080;25.550;2023-01-01T05:56:20;61.58;;;39.20;;
37065;SDS011;22981;43.080;25.550;2023-01-01T05:58:48;64.58;;;38.88;;
37065;SDS011;22981;43.080;25.550;2023-01-01T06:01:17;59.55;;;36.63;;
37065;SDS011;22981;43.080;25.550;2023-01-01T06:03:47;54.20;;;35.13;;
37065;SDS011;22981;43.080;25.550;2023-01-01T06:06:16;55.28;;;34.98;;
37065;SDS011;22981;43.080;25.550;2023-01-01T06:08:49;56.65;;;36.58;;
37065;SDS011;22981;43.080;25.550;2023-01-01T06:11:21;57.08;;;36.13;;
37065;SDS011;22981;43.080;25.550;2023-01-01T06:13:52;59.50;;;36.33;;
37065;SDS011;22981;43.080;25.550;2023-01-01T06:16:21;63.52;;;38.15;;
37065;SDS011;22981;43.080;25.550;2023-01-01T06:18:49;67.62;;;39.25;;
37065;SDS011;22981;43.080;25.550;2023-01-01T06:21:18;68.87;;;42.78;;
37065;SDS011;22981;43.080;25.550;2023-01-01T06:23:47;63.25;;;40.43;;
37065;SDS011;22981;43.080;25.550;2023-01-01T06:26:20;63.75;;;39.27;;
37065;SDS011;22981;43.080;25.550;2023-01-01T06:28:51;65.95;;;42.73;;
37065;SDS011;22981;43.080;25.550;2023-01-01T06:31:19;64.05;;;39.08;;
37065;SDS011;22981;43.080;25.550;2023-01-01T06:33:48;68.02;;;40.80;;
37065;SDS011;22981;43.080;25.550;2023-01-01T06:36:17;68.15;;;41.28;;
37065;SDS011;22981;43.080;25.550;2023-01-01T06:38:47;71.90;;;43.50;;
37065;SDS011;22981;43.080;25.550;2023-01-01T06:41:18;66.55;;;41.60;;
37065;SDS011;22981;43.080;25.550;2023-01-01T06:43:47;70.30;;;42.67;;
37065;SDS011;22981;43.080;25.550;2023-01-01T06:46:22;66.20;;;40.00;;
37065;SDS011;22981;43.080;25.550;2023-01-01T06:48:54;64.27;;;38.48;;
37065;SDS011;22981;43.080;25.550;2023-01-01T06:51:24;71.45;;;44.40;;
37065;SDS011;22981;43.080;25.550;2023-01-01T06:53:56;67.40;;;43.10;;
37065;SDS011;22981;43.080;25.550;2023-01-01T06:56:26;49.13;;;33.00;;
37065;SDS011;22981;43.080;25.550;2023-01-01T06:58:54;62.75;;;41.50;;
37065;SDS011;22981;43.080;25.550;2023-01-01T07:01:24;67.85;;;41.13;;
37065;SDS011;22981;43.080;25.550;2023-01-01T07:03:54;64.05;;;41.33;;
37065;SDS011;22981;43.080;25.550;2023-01-01T07:06:23;68.70;;;43.83;;
37065;SDS011;22981;43.080;25.550;2023-01-01T07:08:51;164.80;;;82.42;;
37065;SDS011;22981;43.080;25.550;2023-01-01T07:11:19;86.10;;;55.95;;
37065;SDS011;22981;43.080;25.550;2023-01-01T07:13:47;82.33;;;53.70;;
37065;SDS011;22981;43.080;25.550;2023-01-01T07:16:14;96.97;;;59.55;;
37065;SDS011;22981;43.080;25.550;2023-01-01T07:18:42;95.55;;;59.25;;
37065;SDS011;22981;43.080;25.550;2023-01-01T07:24:03;77.62;;;49.10;;
37065;SDS011;22981;43.080;25.550;2023-01-01T07:26:32;81.02;;;53.15;;
37065;SDS011;22981;43.080;25.550;2023-01-01T07:29:00;80.47;;;51.28;;
37065;SDS011;22981;43.080;25.550;2023-01-01T07:31:27;82.97;;;57.05;;
37065;SDS011;22981;43.080;25.550;2023-01-01T07:33:55;83.90;;;55.92;;
37065;SDS011;22981;43.080;25.550;2023-01-01T07:36:22;84.37;;;56.42;;
37065;SDS011;22981;43.080;25.550;2023-01-01T07:38:50;83.60;;;55.40;;
37065;SDS011;22981;43.080;25.550;2023-01-01T07:41:18;85.92;;;56.23;;
37065;SDS011;22981;43.080;25.550;2023-01-01T07:43:45;85.15;;;54.80;;
37065;SDS011;22981;43.080;25.550;2023-01-01T07:46:13;85.67;;;57.80;;
37065;SDS011;22981;43.080;25.550;2023-01-01T07:48:43;84.80;;;56.40;;
37065;SDS011;22981;43.080;25.550;2023-01-01T07:51:10;83.07;;;56.25;;
37065;SDS011;22981;43.080;25.550;2023-01-01T07:53:38;77.45;;;52.55;;
37065;SDS011;22981;43.080;25.550;2023-01-01T07:56:06;76.53;;;51.15;;
37065;SDS011;22981;43.080;25.550;2023-01-01T07:58:34;77.78;;;55.45;;
37065;SDS011;22981;43.080;25.550;2023-01-01T08:01:03;82.08;;;56.13;;
37065;SDS011;22981;43.080;25.550;2023-01-01T08:03:30;82.22;;;56.13;;
37065;SDS011;22981;43.080;25.550;2023-01-01T08:05:58;83.17;;;57.60;;
37065;SDS011;22981;43.080;25.550;2023-01-01T08:08:25;88.52;;;61.10;;
37065;SDS011;22981;43.080;25.550;2023-01-01T08:10:53;82.72;;;56.58;;
37065;SDS011;22981;43.080;25.550;2023-01-01T08:13:22;83.82;;;56.28;;
37065;SDS011;22981;43.080;25.550;2023-01-01T08:15:49;82.40;;;58.85;;
37065;SDS011;22981;43.080;25.550;2023-01-01T08:18:17;78.92;;;56.83;;
37065;SDS011;22981;43.080;25.550;2023-01-01T08:20:44;86.37;;;59.63;;
37065;SDS011;22981;43.080;25.550;2023-01-01T08:23:12;91.45;;;63.30;;
37065;SDS011;22981;43.080;25.550;2023-01-01T08:25:40;90.53;;;65.42;;
37065;SDS011;22981;43.080;25.550;2023-01-01T08:28:07;90.57;;;63.52;;
37065;SDS011;22981;43.080;25.550;2023-01-01T08:30:35;89.37;;;61.53;;
37065;SDS011;22981;43.080;25.550;2023-01-01T08:33:03;87.42;;;60.50;;
37065;SDS011;22981;43.080;25.550;2023-01-01T08:35:39;84.77;;;61.90;;
37065;SDS011;22981;43.080;25.550;2023-01-01T08:38:01;87.20;;;60.92;;
37065;SDS011;22981;43.080;25.550;2023-01-01T08:40:28;85.57;;;61.88;;
37065;SDS011;22981;43.080;25.550;2023-01-01T08:42:56;79.27;;;56.88;;
37065;SDS011;22981;43.080;25.550;2023-01-01T08:45:24;72.65;;;54.93;;
37065;SDS011;22981;43.080;25.550;2023-01-01T08:47:51;62.70;;;44.90;;
37065;SDS011;22981;43.080;25.550;2023-01-01T08:50:19;60.58;;;45.63;;
37065;SDS011;22981;43.080;25.550;2023-01-01T08:52:46;57.33;;;43.08;;
37065;SDS011;22981;43.080;25.550;2023-01-01T08:55:14;52.15;;;37.30;;
37065;SDS011;22981;43.080;25.550;2023-01-01T08:57:41;44.80;;;32.95;;
37065;SDS011;22981;43.080;25.550;2023-01-01T09:00:09;45.83;;;32.70;;
37065;SDS011;22981;43.080;25.550;2023-01-01T09:02:38;40.92;;;31.68;;
37065;SDS011;22981;43.080;25.550;2023-01-01T09:05:06;41.85;;;32.13;;
37065;SDS011;22981;43.080;25.550;2023-01-01T09:07:34;39.90;;;30.30;;
37065;SDS011;22981;43.080;25.550;2023-01-01T09:10:01;38.67;;;29.50;;
37065;SDS011;22981;43.080;25.550;2023-01-01T09:12:29;38.95;;;30.37;;
37065;SDS011;22981;43.080;25.550;2023-01-01T09:14:57;35.65;;;27.55;;
37065;SDS011;22981;43.080;25.550;2023-01-01T09:17:24;33.28;;;26.15;;
37065;SDS011;22981;43.080;25.550;2023-01-01T09:19:52;34.08;;;26.75;;
37065;SDS011;22981;43.080;25.550;2023-01-01T09:22:19;32.30;;;24.65;;
37065;SDS011;22981;43.080;25.550;2023-01-01T09:24:47;30.52;;;26.30;;
37065;SDS011;22981;43.080;25.550;2023-01-01T09:27:14;32.25;;;24.27;;
37065;SDS011;22981;43.080;25.550;2023-01-01T09:29:42;33.45;;;25.02;;
37065;SDS011;22981;43.080;25.550;2023-01-01T09:32:10;31.68;;;23.90;;
37065;SDS011;22981;43.080;25.550;2023-01-01T09:34:37;31.65;;;24.15;;
37065;SDS011;22981;43.080;25.550;2023-01-01T09:37:05;28.35;;;20.82;;
37065;SDS011;22981;43.080;25.550;2023-01-01T09:39:32;28.75;;;23.00;;
37065;SDS011;22981;43.080;25.550;2023-01-01T09:43:04;31.07;;;23.70;;
37065;SDS011;22981;43.080;25.550;2023-01-01T09:47:54;31.52;;;24.23;;
37065;SDS011;22981;43.080;25.550;2023-01-01T09:50:34;27.00;;;18.07;;
37065;SDS011;22981;43.080;25.550;2023-01-01T09:53:27;32.95;;;24.57;;
37065;SDS011;22981;43.080;25.550;2023-01-01T09:55:56;36.38;;;27.85;;
37065;SDS011;22981;43.080;25.550;2023-01-01T09:58:31;34.45;;;26.68;;
37065;SDS011;22981;43.080;25.550;2023-01-01T10:01:19;34.78;;;25.12;;
37065;SDS011;22981;43.080;25.550;2023-01-01T10:10:14;33.65;;;24.70;;
37065;SDS011;22981;43.080;25.550;2023-01-01T10:12:40;38.28;;;24.75;;
37065;SDS011;22981;43.080;25.550;2023-01-01T10:15:14;32.05;;;26.12;;
37065;SDS011;22981;43.080;25.550;2023-01-01T10:17:46;29.77;;;23.62;;
37065;SDS011;22981;43.080;25.550;2023-01-01T10:20:23;28.30;;;23.07;;
37065;SDS011;22981;43.080;25.550;2023-01-01T10:23:01;31.93;;;24.92;;
37065;SDS011;22981;43.080;25.550;2023-01-01T10:25:27;30.23;;;23.57;;
37065;SDS011;22981;43.080;25.550;2023-01-01T10:28:01;32.23;;;25.23;;
37065;SDS011;22981;43.080;25.550;2023-01-01T10:30:26;30.88;;;23.07;;
37065;SDS011;22981;43.080;25.550;2023-01-01T10:32:55;29.07;;;20.90;;
37065;SDS011;22981;43.080;25.550;2023-01-01T10:35:33;26.00;;;19.67;;
37065;SDS011;22981;43.080;25.550;2023-01-01T10:38:03;28.20;;;21.50;;
37065;SDS011;22981;43.080;25.550;2023-01-01T10:40:31;27.95;;;21.05;;
37065;SDS011;22981;43.080;25.550;2023-01-01T10:43:00;27.98;;;23.32;;
37065;SDS011;22981;43.080;25.550;2023-01-01T10:45:45;31.87;;;25.50;;
37065;SDS011;22981;43.080;25.550;2023-01-01T10:50:50;28.15;;;21.40;;
37065;SDS011;22981;43.080;25.550;2023-01-01T10:53:41;26.15;;;19.50;;
37065;SDS011;22981;43.080;25.550;2023-01-01T10:56:14;24.95;;;19.07;;
37065;SDS011;22981;43.080;25.550;2023-01-01T11:03:52;23.87;;;19.27;;
37065;SDS011;22981;43.080;25.550;2023-01-01T11:06:44;25.68;;;19.20;;
37065;SDS011;22981;43.080;25.550;2023-01-01T11:09:20;22.27;;;16.85;;
37065;SDS011;22981;43.080;25.550;2023-01-01T11:12:05;17.75;;;13.55;;
37065;SDS011;22981;43.080;25.550;2023-01-01T11:14:33;11.00;;;8.05;;
37065;SDS011;22981;43.080;25.550;2023-01-01T11:17:06;11.65;;;9.60;;
37065;SDS011;22981;43.080;25.550;2023-01-01T11:19:36;10.72;;;8.95;;
37065;SDS011;22981;43.080;25.550;2023-01-01T11:22:05;9.98;;;8.15;;
37065;SDS011;22981;43.080;25.550;2023-01-01T11:24:34;9.98;;;7.62;;
37065;SDS011;22981;43.080;25.550;2023-01-01T11:27:26;10.85;;;8.10;;
37065;SDS011;22981;43.080;25.550;2023-01-01T11:29:50;9.05;;;7.65;;
37065;SDS011;22981;43.080;25.550;2023-01-01T11:32:21;12.25;;;8.90;;
37065;SDS011;22981;43.080;25.550;2023-01-01T11:34:58;11.45;;;8.88;;
37065;SDS011;22981;43.080;25.550;2023-01-01T11:37:38;12.10;;;8.65;;
37065;SDS011;22981;43.080;25.550;2023-01-01T11:40:03;10.95;;;7.35;;
37065;SDS011;22981;43.080;25.550;2023-01-01T11:42:33;10.75;;;8.28;;
37065;SDS011;22981;43.080;25.550;2023-01-01T11:45:07;11.03;;;8.33;;
37065;SDS011;22981;43.080;25.550;2023-01-01T11:48:03;9.75;;;7.65;;
37065;SDS011;22981;43.080;25.550;2023-01-01T11:50:35;9.60;;;6.87;;
37065;SDS011;22981;43.080;25.550;2023-01-01T11:55:51;8.48;;;6.03;;
37065;SDS011;22981;43.080;25.550;2023-01-01T11:58:21;7.37;;;5.58;;
37065;SDS011;22981;43.080;25.550;2023-01-01T12:00:51;7.10;;;6.08;;
37065;SDS011;22981;43.080;25.550;2023-01-01T12:03:24;10.03;;;5.53;;
37065;SDS011;22981;43.080;25.550;2023-01-01T12:09:33;6.87;;;4.42;;
37065;SDS011;22981;43.080;25.550;2023-01-01T12:11:22;5.03;;;4.03;;
37065;SDS011;22981;43.080;25.550;2023-01-01T12:13:55;5.28;;;4.28;;
37065;SDS011;22981;43.080;25.550;2023-01-01T12:16:44;5.70;;;3.20;;
37065;SDS011;22981;43.080;25.550;2023-01-01T12:19:10;4.40;;;2.72;;
37065;SDS011;22981;43.080;25.550;2023-01-01T12:24:10;7.35;;;3.05;;
37065;SDS011;22981;43.080;25.550;2023-01-01T12:32:03;3.95;;;2.58;;
37065;SDS011;22981;43.080;25.550;2023-01-01T12:34:43;3.83;;;2.20;;
37065;SDS011;22981;43.080;25.550;2023-01-01T12:43:02;5.67;;;3.15;;
37065;SDS011;22981;43.080;25.550;2023-01-01T12:45:38;3.85;;;2.80;;
37065;SDS011;22981;43.080;25.550;2023-01-01T12:48:27;4.40;;;2.22;;
37065;SDS011;22981;43.080;25.550;2023-01-01T12:53:49;6.50;;;2.37;;
37065;SDS011;22981;43.080;25.550;2023-01-01T12:56:34;5.83;;;3.65;;
37065;SDS011;22981;43.080;25.550;2023-01-01T12:59:09;4.20;;;2.72;;
37065;SDS011;22981;43.080;25.550;2023-01-01T13:01:47;4.33;;;2.58;;
37065;SDS011;22981;43.080;25.550;2023-01-01T13:04:17;3.65;;;2.30;;
37065;SDS011;22981;43.080;25.550;2023-01-01T13:06:50;13.85;;;6.70;;
37065;SDS011;22981;43.080;25.550;2023-01-01T13:09:34;2.55;;;1.72;;
37065;SDS011;22981;43.080;25.550;2023-01-01T13:12:05;3.85;;;1.98;;
37065;SDS011;22981;43.080;25.550;2023-01-01T13:14:37;9.85;;;4.20;;
37065;SDS011;22981;43.080;25.550;2023-01-01T13:17:17;5.50;;;3.05;;
37065;SDS011;22981;43.080;25.550;2023-01-01T13:19:46;7.65;;;3.30;;
37065;SDS011;22981;43.080;25.550;2023-01-01T13:22:57;2.35;;;1.70;;
37065;SDS011;22981;43.080;25.550;2023-01-01T13:25:36;2.62;;;1.72;;
37065;SDS011;22981;43.080;25.550;2023-01-01T13:38:43;3.15;;;2.10;;
37065;SDS011;22981;43.080;25.550;2023-01-01T13:55:24;7.83;;;5.67;;
37065;SDS011;22981;43.080;25.550;2023-01-01T13:58:08;7.37;;;5.17;;
37065;SDS011;22981;43.080;25.550;2023-01-01T14:03:27;9.03;;;5.37;;
37065;SDS011;22981;43.080;25.550;2023-01-01T14:05:58;9.00;;;5.28;;
37065;SDS011;22981;43.080;25.550;2023-01-01T14:08:31;6.00;;;5.05;;
37065;SDS011;22981;43.080;25.550;2023-01-01T14:13:28;16.60;;;9.28;;
37065;SDS011;22981;43.080;25.550;2023-01-01T14:16:06;10.65;;;8.05;;
37065;SDS011;22981;43.080;25.550;2023-01-01T14:18:33;10.35;;;7.03;;
37065;SDS011;22981;43.080;25.550;2023-01-01T14:21:09;11.20;;;8.10;;
37065;SDS011;22981;43.080;25.550;2023-01-01T14:23:45;30.48;;;18.75;;
37065;SDS011;22981;43.080;25.550;2023-01-01T14:26:20;15.45;;;12.98;;
37065;SDS011;22981;43.080;25.550;2023-01-01T14:28:57;15.80;;;11.50;;
37065;SDS011;22981;43.080;25.550;2023-01-01T14:31:30;16.02;;;11.60;;
37065;SDS011;22981;43.080;25.550;2023-01-01T14:33:56;13.03;;;10.48;;
37065;SDS011;22981;43.080;25.550;2023-01-01T14:38:55;16.27;;;11.40;;
37065;SDS011;22981;43.080;25.550;2023-01-01T14:41:30;15.25;;;11.83;;
37065;SDS011;22981;43.080;25.550;2023-01-01T14:44:09;18.62;;;11.18;;
37065;SDS011;22981;43.080;25.550;2023-01-01T14:46:46;14.03;;;10.40;;
37065;SDS011;22981;43.080;25.550;2023-01-01T14:49:16;23.55;;;13.50;;
37065;SDS011;22981;43.080;25.550;2023-01-01T14:51:46;14.38;;;11.63;;
37065;SDS011;22981;43.080;25.550;2023-01-01T14:54:19;15.98;;;11.90;;
37065;SDS011;22981;43.080;25.550;2023-01-01T14:56:48;17.15;;;12.25;;
37065;SDS011;22981;43.080;25.550;2023-01-01T14:59:20;15.85;;;12.33;;
37065;SDS011;22981;43.080;25.550;2023-01-01T15:02:01;12.03;;;9.70;;
37065;SDS011;22981;43.080;25.550;2023-01-01T15:04:29;13.22;;;8.98;;
37065;SDS011;22981;43.080;25.550;2023-01-01T15:06:57;16.27;;;8.80;;
37065;SDS011;22981;43.080;25.550;2023-01-01T15:09:26;14.23;;;10.13;;
37065;SDS011;22981;43.080;25.550;2023-01-01T15:11:56;14.55;;;9.55;;
37065;SDS011;22981;43.080;25.550;2023-01-01T15:14:32;16.30;;;11.50;;
37065;SDS011;22981;43.080;25.550;2023-01-01T15:17:05;15.05;;;10.82;;
37065;SDS011;22981;43.080;25.550;2023-01-01T15:19:36;17.62;;;12.03;;
37065;SDS011;22981;43.080;25.550;2023-01-01T15:24:48;17.87;;;13.22;;
37065;SDS011;22981;43.080;25.550;2023-01-01T15:27:28;28.32;;;14.85;;
37065;SDS011;22981;43.080;25.550;2023-01-01T15:29:58;25.20;;;15.75;;
37065;SDS011;22981;43.080;25.550;2023-01-01T15:32:33;23.32;;;14.83;;
37065;SDS011;22981;43.080;25.550;2023-01-01T15:35:04;22.15;;;10.98;;
37065;SDS011;22981;43.080;25.550;2023-01-01T15:37:43;13.60;;;8.13;;
37065;SDS011;22981;43.080;25.550;2023-01-01T15:42:43;11.97;;;8.53;;
37065;SDS011;22981;43.080;25.550;2023-01-01T15:45:14;13.30;;;8.33;;
37065;SDS011;22981;43.080;25.550;2023-01-01T15:47:47;19.60;;;13.70;;
37065;SDS011;22981;43.080;25.550;2023-01-01T15:52:51;32.48;;;19.07;;
37065;SDS011;22981;43.080;25.550;2023-01-01T15:55:20;28.40;;;17.85;;
37065;SDS011;22981;43.080;25.550;2023-01-01T15:57:49;21.00;;;15.48;;
37065;SDS011;22981;43.080;25.550;2023-01-01T16:00:20;29.05;;;18.10;;
37065;SDS011;22981;43.080;25.550;2023-01-01T16:02:53;30.45;;;20.17;;
37065;SDS011;22981;43.080;25.550;2023-01-01T16:05:23;28.90;;;21.85;;
37065;SDS011;22981;43.080;25.550;2023-01-01T16:07:59;29.30;;;20.52;;
37065;SDS011;22981;43.080;25.550;2023-01-01T16:10:28;20.55;;;16.45;;
37065;SDS011;22981;43.080;25.550;2023-01-01T16:12:56;15.90;;;11.93;;
37065;SDS011;22981;43.080;25.550;2023-01-01T16:15:24;14.35;;;10.80;;
37065;SDS011;22981;43.080;25.550;2023-01-01T16:17:52;13.85;;;10.90;;
37065;SDS011;22981;43.080;25.550;2023-01-01T16:20:20;15.93;;;11.48;;
37065;SDS011;22981;43.080;25.550;2023-01-01T16:22:48;16.35;;;11.80;;
37065;SDS011;22981;43.080;25.550;2023-01-01T16:25:19;21.02;;;12.88;;
37065;SDS011;22981;43.080;25.550;2023-01-01T16:27:48;19.42;;;13.72;;
37065;SDS011;22981;43.080;25.550;2023-01-01T16:30:16;20.40;;;15.75;;
37065;SDS011;22981;43.080;25.550;2023-01-01T16:32:44;24.37;;;18.25;;